sensor_id;sensor_type;location;lat;lon;timestamp;P1;durP1;ratioP1;P2;durP2;ratioP2
19967;SDS011;10145;49.152;9.282;2022-07-06T04:00:23;8.48;;;5.40;;
19967;SDS011;10145;49.152;9.282;2022-07-06T04:02:48;7.00;;;5.63;;
19967;SDS011;10145;49.152;9.282;2022-07-06T04:05:14;6.57;;;5.97;;
19967;SDS011;10145;49.152;9.282;2022-07-06T04:07:40;5.90;;;5.30;;
19967;SDS011;10145;49.152;9.282;2022-07-06T04:10:06;5.82;;;5.30;;
19967;SDS011;10145;49.152;9.282;2022-07-06T04:12:32;6.00;;;5.30;;
19967;SDS011;10145;49.152;9.282;2022-07-06T04:15:04;6.13;;;5.50;;
19967;SDS011;10145;49.152;9.282;2022-07-06T04:17:30;7.82;;;5.65;;
19967;SDS011;10145;49.152;9.282;2022-07-06T04:20:14;5.75;;;5.25;;
19967;SDS011;10145;49.152;9.282;2022-07-06T04:22:40;7.13;;;5.32;;
19967;SDS011;10145;49.152;9.282;2022-07-06T04:25:05;7.30;;;5.43;;
19967;SDS011;10145;49.152;9.282;2022-07-06T04:27:31;6.28;;;5.68;;
19967;SDS011;10145;49.152;9.282;2022-07-06T04:29:57;5.28;;;4.72;;
19967;SDS011;10145;49.152;9.282;2022-07-06T04:32:22;6.35;;;5.35;;
19967;SDS011;10145;49.152;9.282;2022-07-06T04:34:48;6.00;;;5.43;;
19967;SDS011;10145;49.152;9.282;2022-07-06T04:37:13;9.23;;;5.30;;
19967;SDS011;10145;49.152;9.282;2022-07-06T04:39:39;6.63;;;4.90;;
19967;SDS011;10145;49.152;9.282;2022-07-06T04:42:04;9.85;;;5.38;;
19967;SDS011;10145;49.152;9.282;2022-07-06T04:44:30;5.55;;;4.65;;
19967;SDS011;10145;49.152;9.282;2022-07-06T04:46:55;5.68;;;4.68;;
19967;SDS011;10145;49.152;9.282;2022-07-06T04:49:21;7.03;;;4.63;;
19967;SDS011;10145;49.152;9.282;2022-07-06T04:51:46;5.63;;;4.55;;
19967;SDS011;10145;49.152;9.282;2022-07-06T04:54:12;7.80;;;4.35;;
19967;SDS011;10145;49.152;9.282;2022-07-06T04:56:37;6.55;;;4.30;;
19967;SDS011;10145;49.152;9.282;2022-07-06T04:59:03;4.75;;;4.15;;
19967;SDS011;10145;49.152;9.282;2022-07-06T05:01:28;4.82;;;3.75;;
19967;SDS011;10145;49.152;9.282;2022-07-06T05:03:54;7.80;;;3.95;;
19967;SDS011;10145;49.152;9.282;2022-07-06T05:06:19;6.53;;;4.03;;
19967;SDS011;10145;49.152;9.282;2022-07-06T05:08:45;8.07;;;4.05;;
19967;SDS011;10145;49.152;9.282;2022-07-06T05:11:11;8.35;;;4.03;;
19967;SDS011;10145;49.152;9.282;2022-07-06T05:13:36;6.97;;;3.80;;
19967;SDS011;10145;49.152;9.282;2022-07-06T05:16:02;4.80;;;3.58;;
19967;SDS011;10145;49.152;9.282;2022-07-06T05:18:28;7.35;;;3.97;;
19967;SDS011;10145;49.152;9.282;2022-07-06T05:20:55;5.22;;;3.20;;
19967;SDS011;10145;49.152;9.282;2022-07-06T05:23:20;5.63;;;3.40;;
19967;SDS011;10145;49.152;9.282;2022-07-06T05:25:46;6.07;;;3.58;;
19967;SDS011;10145;49.152;9.282;2022-07-06T05:28:11;4.97;;;3.60;;
19967;SDS011;10145;49.152;9.282;2022-07-06T05:30:37;5.25;;;3.22;;
19967;SDS011;10145;49.152;9.282;2022-07-06T05:33:02;4.82;;;3.45;;
19967;SDS011;10145;49.152;9.282;2022-07-06T05:35:28;4.45;;;3.17;;
19967;SDS011;10145;49.152;9.282;2022-07-06T05:37:54;8.73;;;3.47;;
19967;SDS011;10145;49.152;9.282;2022-07-06T05:40:20;5.88;;;3.10;;
19967;SDS011;10145;49.152;9.282;2022-07-06T05:42:45;5.55;;;3.55;;
19967;SDS011;10145;49.152;9.282;2022-07-06T05:45:11;9.13;;;3.25;;
19967;SDS011;10145;49.152;9.282;2022-07-06T05:47:36;10.40;;;4.00;;
19967;SDS011;10145;49.152;9.282;2022-07-06T05:50:21;9.95;;;3.75;;
19967;SDS011;10145;49.152;9.282;2022-07-06T05:52:55;9.02;;;3.92;;
19967;SDS011;10145;49.152;9.282;2022-07-06T05:55:24;16.05;;;3.83;;
19967;SDS011;10145;49.152;9.282;2022-07-06T05:57:50;8.45;;;3.80;;
19967;SDS011;10145;49.152;9.282;2022-07-06T06:00:18;4.40;;;3.38;;
19967;SDS011;10145;49.152;9.282;2022-07-06T06:02:45;7.03;;;3.22;;
19967;SDS011;10145;49.152;9.282;2022-07-06T06:05:11;4.85;;;3.00;;
19967;SDS011;10145;49.152;9.282;2022-07-06T06:07:38;10.77;;;3.53;;
19967;SDS011;10145;49.152;9.282;2022-07-06T06:10:05;6.40;;;3.40;;
19967;SDS011;10145;49.152;9.282;2022-07-06T06:12:32;4.25;;;3.35;;
19967;SDS011;10145;49.152;9.282;2022-07-06T06:14:58;5.25;;;3.00;;
19967;SDS011;10145;49.152;9.282;2022-07-06T06:17:24;4.85;;;3.20;;
19967;SDS011;10145;49.152;9.282;2022-07-06T06:19:49;4.07;;;3.00;;
19967;SDS011;10145;49.152;9.282;2022-07-06T06:22:15;8.13;;;3.10;;
19967;SDS011;10145;49.152;9.282;2022-07-06T06:24:40;11.25;;;3.58;;
19967;SDS011;10145;49.152;9.282;2022-07-06T06:27:06;6.97;;;3.22;;
19967;SDS011;10145;49.152;9.282;2022-07-06T06:29:32;5.72;;;3.10;;
19967;SDS011;10145;49.152;9.282;2022-07-06T06:31:57;15.35;;;3.80;;
19967;SDS011;10145;49.152;9.282;2022-07-06T06:34:23;23.90;;;4.43;;
19967;SDS011;10145;49.152;9.282;2022-07-06T06:36:48;4.20;;;2.90;;
19967;SDS011;10145;49.152;9.282;2022-07-06T06:39:14;6.35;;;2.75;;
19967;SDS011;10145;49.152;9.282;2022-07-06T06:41:40;5.95;;;3.10;;
19967;SDS011;10145;49.152;9.282;2022-07-06T06:44:05;3.10;;;2.80;;
19967;SDS011;10145;49.152;9.282;2022-07-06T06:46:31;5.15;;;3.40;;
19967;SDS011;10145;49.152;9.282;2022-07-06T06:48:56;3.70;;;2.72;;
19967;SDS011;10145;49.152;9.282;2022-07-06T06:51:22;5.55;;;3.28;;
19967;SDS011;10145;49.152;9.282;2022-07-06T06:53:47;6.93;;;2.80;;
19967;SDS011;10145;49.152;9.282;2022-07-06T06:56:13;4.00;;;3.00;;
19967;SDS011;10145;49.152;9.282;2022-07-06T06:58:38;6.25;;;3.00;;
19967;SDS011;10145;49.152;9.282;2022-07-06T07:01:04;9.48;;;3.92;;
19967;SDS011;10145;49.152;9.282;2022-07-06T07:03:30;7.45;;;3.25;;
19967;SDS011;10145;49.152;9.282;2022-07-06T07:05:56;7.63;;;3.75;;
19967;SDS011;10145;49.152;9.282;2022-07-06T07:08:22;6.03;;;3.13;;
19967;SDS011;10145;49.152;9.282;2022-07-06T07:10:47;5.07;;;3.00;;
19967;SDS011;10145;49.152;9.282;2022-07-06T07:13:13;5.35;;;3.22;;
19967;SDS011;10145;49.152;9.282;2022-07-06T07:15:38;7.10;;;3.65;;
19967;SDS011;10145;49.152;9.282;2022-07-06T07:18:04;5.22;;;3.60;;
19967;SDS011;10145;49.152;9.282;2022-07-06T07:20:29;9.90;;;3.25;;
19967;SDS011;10145;49.152;9.282;2022-07-06T07:22:56;6.60;;;2.97;;
19967;SDS011;10145;49.152;9.282;2022-07-06T07:25:22;4.18;;;3.30;;
19967;SDS011;10145;49.152;9.282;2022-07-06T07:27:48;7.43;;;3.20;;
19967;SDS011;10145;49.152;9.282;2022-07-06T07:30:13;5.10;;;3.13;;
19967;SDS011;10145;49.152;9.282;2022-07-06T07:32:39;5.90;;;2.88;;
19967;SDS011;10145;49.152;9.282;2022-07-06T07:35:07;6.22;;;3.10;;
19967;SDS011;10145;49.152;9.282;2022-07-06T07:37:33;6.60;;;3.08;;
19967;SDS011;10145;49.152;9.282;2022-07-06T07:39:59;4.95;;;3.00;;
19967;SDS011;10145;49.152;9.282;2022-07-06T07:42:25;4.93;;;2.97;;
19967;SDS011;10145;49.152;9.282;2022-07-06T07:44:50;6.80;;;2.90;;
19967;SDS011;10145;49.152;9.282;2022-07-06T07:47:16;4.72;;;3.67;;
19967;SDS011;10145;49.152;9.282;2022-07-06T07:49:42;7.35;;;3.22;;
19967;SDS011;10145;49.152;9.282;2022-07-06T07:52:07;5.05;;;3.25;;
19967;SDS011;10145;49.152;9.282;2022-07-06T07:54:33;3.75;;;2.80;;
19967;SDS011;10145;49.152;9.282;2022-07-06T07:56:59;8.63;;;3.33;;
19967;SDS011;10145;49.152;9.282;2022-07-06T07:59:24;4.75;;;3.38;;
19967;SDS011;10145;49.152;9.282;2022-07-06T08:01:50;5.30;;;2.95;;
19967;SDS011;10145;49.152;9.282;2022-07-06T08:04:16;5.10;;;3.60;;
19967;SDS011;10145;49.152;9.282;2022-07-06T08:06:42;4.25;;;3.25;;
19967;SDS011;10145;49.152;9.282;2022-07-06T08:09:08;4.30;;;3.20;;
19967;SDS011;10145;49.152;9.282;2022-07-06T08:11:33;4.32;;;3.00;;
19967;SDS011;10145;49.152;9.282;2022-07-06T08:14:00;4.65;;;2.63;;
19967;SDS011;10145;49.152;9.282;2022-07-06T08:16:25;6.82;;;3.55;;
19967;SDS011;10145;49.152;9.282;2022-07-06T08:18:51;7.82;;;3.00;;
19967;SDS011;10145;49.152;9.282;2022-07-06T08:21:17;13.43;;;3.53;;
19967;SDS011;10145;49.152;9.282;2022-07-06T08:23:43;6.22;;;3.15;;
19967;SDS011;10145;49.152;9.282;2022-07-06T08:26:08;6.93;;;3.38;;
19967;SDS011;10145;49.152;9.282;2022-07-06T08:28:34;6.65;;;3.28;;
19967;SDS011;10145;49.152;9.282;2022-07-06T08:30:59;4.53;;;2.95;;
19967;SDS011;10145;49.152;9.282;2022-07-06T08:33:25;8.35;;;3.17;;
19967;SDS011;10145;49.152;9.282;2022-07-06T08:35:50;6.53;;;3.42;;
19967;SDS011;10145;49.152;9.282;2022-07-06T08:38:16;3.97;;;3.30;;
19967;SDS011;10145;49.152;9.282;2022-07-06T08:40:41;6.90;;;3.65;;
19967;SDS011;10145;49.152;9.282;2022-07-06T08:43:10;5.72;;;3.63;;
19967;SDS011;10145;49.152;9.282;2022-07-06T08:45:39;5.55;;;3.00;;
19967;SDS011;10145;49.152;9.282;2022-07-06T08:48:05;6.28;;;2.92;;
19967;SDS011;10145;49.152;9.282;2022-07-06T08:50:33;8.05;;;2.50;;
19967;SDS011;10145;49.152;9.282;2022-07-06T08:52:59;3.85;;;2.80;;
19967;SDS011;10145;49.152;9.282;2022-07-06T08:55:28;4.43;;;2.60;;
19967;SDS011;10145;49.152;9.282;2022-07-06T08:57:54;4.18;;;2.90;;
19967;SDS011;10145;49.152;9.282;2022-07-06T09:00:21;4.82;;;3.08;;
19967;SDS011;10145;49.152;9.282;2022-07-06T09:02:48;4.18;;;2.97;;
19967;SDS011;10145;49.152;9.282;2022-07-06T09:05:16;4.78;;;2.60;;
19967;SDS011;10145;49.152;9.282;2022-07-06T09:07:42;5.20;;;3.22;;
19967;SDS011;10145;49.152;9.282;2022-07-06T09:10:14;7.15;;;3.03;;
19967;SDS011;10145;49.152;9.282;2022-07-06T09:12:46;5.22;;;2.83;;
19967;SDS011;10145;49.152;9.282;2022-07-06T09:15:12;4.93;;;2.55;;
19967;SDS011;10145;49.152;9.282;2022-07-06T09:17:38;3.92;;;3.05;;
19967;SDS011;10145;49.152;9.282;2022-07-06T09:20:08;4.57;;;2.80;;
19967;SDS011;10145;49.152;9.282;2022-07-06T09:22:35;4.60;;;2.80;;
19967;SDS011;10145;49.152;9.282;2022-07-06T09:25:09;6.50;;;2.80;;
19967;SDS011;10145;49.152;9.282;2022-07-06T09:27:40;5.68;;;2.60;;
19967;SDS011;10145;49.152;9.282;2022-07-06T09:30:11;5.40;;;2.33;;
19967;SDS011;10145;49.152;9.282;2022-07-06T09:32:38;7.95;;;2.65;;
19967;SDS011;10145;49.152;9.282;2022-07-06T09:35:05;8.77;;;2.70;;
19967;SDS011;10145;49.152;9.282;2022-07-06T09:37:31;4.22;;;2.60;;
19967;SDS011;10145;49.152;9.282;2022-07-06T09:39:56;5.07;;;2.65;;
19967;SDS011;10145;49.152;9.282;2022-07-06T09:42:25;3.22;;;2.42;;
19967;SDS011;10145;49.152;9.282;2022-07-06T09:44:52;3.30;;;2.10;;
19967;SDS011;10145;49.152;9.282;2022-07-06T09:47:18;4.03;;;2.38;;
19967;SDS011;10145;49.152;9.282;2022-07-06T09:49:45;4.57;;;2.70;;
19967;SDS011;10145;49.152;9.282;2022-07-06T09:52:12;5.03;;;2.63;;
19967;SDS011;10145;49.152;9.282;2022-07-06T09:54:39;4.85;;;2.60;;
19967;SDS011;10145;49.152;9.282;2022-07-06T09:57:05;5.20;;;2.60;;
19967;SDS011;10145;49.152;9.282;2022-07-06T09:59:32;3.80;;;2.30;;
19967;SDS011;10145;49.152;9.282;2022-07-06T10:02:00;3.83;;;2.33;;
19967;SDS011;10145;49.152;9.282;2022-07-06T10:04:29;5.93;;;2.28;;
19967;SDS011;10145;49.152;9.282;2022-07-06T10:06:56;14.10;;;3.00;;
19967;SDS011;10145;49.152;9.282;2022-07-06T10:09:24;7.20;;;2.60;;
19967;SDS011;10145;49.152;9.282;2022-07-06T10:11:52;10.32;;;2.75;;
19967;SDS011;10145;49.152;9.282;2022-07-06T10:14:29;12.73;;;3.20;;
19967;SDS011;10145;49.152;9.282;2022-07-06T10:16:56;5.00;;;2.42;;
19967;SDS011;10145;49.152;9.282;2022-07-06T10:19:24;8.25;;;2.53;;
19967;SDS011;10145;49.152;9.282;2022-07-06T10:21:50;4.03;;;2.45;;
19967;SDS011;10145;49.152;9.282;2022-07-06T10:24:17;4.40;;;2.50;;
19967;SDS011;10145;49.152;9.282;2022-07-06T10:26:44;5.53;;;2.45;;
19967;SDS011;10145;49.152;9.282;2022-07-06T10:29:11;3.63;;;2.30;;
19967;SDS011;10145;49.152;9.282;2022-07-06T10:31:38;2.95;;;2.33;;
19967;SDS011;10145;49.152;9.282;2022-07-06T10:34:09;21.70;;;3.78;;
19967;SDS011;10145;49.152;9.282;2022-07-06T10:36:37;3.83;;;2.40;;
19967;SDS011;10145;49.152;9.282;2022-07-06T10:39:06;6.88;;;2.15;;
19967;SDS011;10145;49.152;9.282;2022-07-06T10:41:52;2.47;;;2.17;;
19967;SDS011;10145;49.152;9.282;2022-07-06T10:44:19;8.48;;;2.53;;
19967;SDS011;10145;49.152;9.282;2022-07-06T10:46:50;8.30;;;2.53;;
19967;SDS011;10145;49.152;9.282;2022-07-06T10:49:20;6.13;;;2.28;;
19967;SDS011;10145;49.152;9.282;2022-07-06T10:51:47;4.90;;;2.30;;
19967;SDS011;10145;49.152;9.282;2022-07-06T10:54:14;4.20;;;2.13;;
19967;SDS011;10145;49.152;9.282;2022-07-06T10:56:50;10.15;;;2.30;;
19967;SDS011;10145;49.152;9.282;2022-07-06T11:04:38;10.60;;;2.75;;
19967;SDS011;10145;49.152;9.282;2022-07-06T11:07:08;2.75;;;2.00;;
19967;SDS011;10145;49.152;9.282;2022-07-06T11:09:41;3.13;;;2.03;;
19967;SDS011;10145;49.152;9.282;2022-07-06T11:12:19;5.32;;;2.17;;
19967;SDS011;10145;49.152;9.282;2022-07-06T11:14:45;4.07;;;1.95;;
19967;SDS011;10145;49.152;9.282;2022-07-06T11:17:12;4.15;;;2.35;;
19967;SDS011;10145;49.152;9.282;2022-07-06T11:19:38;5.07;;;2.30;;
19967;SDS011;10145;49.152;9.282;2022-07-06T11:22:14;5.03;;;2.08;;
19967;SDS011;10145;49.152;9.282;2022-07-06T11:24:41;5.22;;;2.00;;
19967;SDS011;10145;49.152;9.282;2022-07-06T11:27:07;3.28;;;2.00;;
19967;SDS011;10145;49.152;9.282;2022-07-06T11:29:33;3.60;;;1.90;;
19967;SDS011;10145;49.152;9.282;2022-07-06T11:32:01;8.27;;;2.20;;
19967;SDS011;10145;49.152;9.282;2022-07-06T11:34:33;3.22;;;2.00;;
19967;SDS011;10145;49.152;9.282;2022-07-06T11:37:11;2.92;;;2.08;;
19967;SDS011;10145;49.152;9.282;2022-07-06T11:39:38;6.50;;;2.10;;
19967;SDS011;10145;49.152;9.282;2022-07-06T11:42:05;7.43;;;2.25;;
19967;SDS011;10145;49.152;9.282;2022-07-06T11:44:32;5.35;;;2.20;;
19967;SDS011;10145;49.152;9.282;2022-07-06T11:46:59;4.00;;;2.03;;
19967;SDS011;10145;49.152;9.282;2022-07-06T11:49:29;6.85;;;2.40;;
19967;SDS011;10145;49.152;9.282;2022-07-06T11:51:59;4.35;;;2.22;;
19967;SDS011;10145;49.152;9.282;2022-07-06T11:54:25;7.28;;;2.20;;
19967;SDS011;10145;49.152;9.282;2022-07-06T11:56:52;4.68;;;2.72;;
19967;SDS011;10145;49.152;9.282;2022-07-06T11:59:23;7.20;;;2.33;;
19967;SDS011;10145;49.152;9.282;2022-07-06T12:02:00;4.57;;;2.47;;
19967;SDS011;10145;49.152;9.282;2022-07-06T12:04:34;7.80;;;2.10;;
19967;SDS011;10145;49.152;9.282;2022-07-06T12:07:01;3.83;;;2.42;;
19967;SDS011;10145;49.152;9.282;2022-07-06T12:09:37;5.03;;;2.50;;
19967;SDS011;10145;49.152;9.282;2022-07-06T12:12:03;5.82;;;3.30;;
19967;SDS011;10145;49.152;9.282;2022-07-06T12:14:30;12.57;;;3.65;;
19967;SDS011;10145;49.152;9.282;2022-07-06T12:17:02;12.63;;;4.10;;
19967;SDS011;10145;49.152;9.282;2022-07-06T12:19:29;10.95;;;3.20;;
19967;SDS011;10145;49.152;9.282;2022-07-06T12:21:54;4.10;;;3.05;;
19967;SDS011;10145;49.152;9.282;2022-07-06T12:24:25;10.73;;;3.47;;
19967;SDS011;10145;49.152;9.282;2022-07-06T12:26:53;8.90;;;3.10;;
19967;SDS011;10145;49.152;9.282;2022-07-06T12:29:20;7.28;;;2.38;;
19967;SDS011;10145;49.152;9.282;2022-07-06T12:34:16;8.05;;;3.20;;
19967;SDS011;10145;49.152;9.282;2022-07-06T12:36:44;5.53;;;2.60;;
19967;SDS011;10145;49.152;9.282;2022-07-06T12:39:12;8.98;;;2.30;;
19967;SDS011;10145;49.152;9.282;2022-07-06T12:41:43;6.28;;;2.72;;
19967;SDS011;10145;49.152;9.282;2022-07-06T12:44:10;5.18;;;2.38;;
19967;SDS011;10145;49.152;9.282;2022-07-06T12:46:37;6.95;;;2.60;;
19967;SDS011;10145;49.152;9.282;2022-07-06T12:51:52;4.65;;;2.30;;
19967;SDS011;10145;49.152;9.282;2022-07-06T12:54:44;6.57;;;2.90;;
19967;SDS011;10145;49.152;9.282;2022-07-06T12:57:13;5.63;;;2.58;;
19967;SDS011;10145;49.152;9.282;2022-07-06T13:02:29;7.50;;;2.67;;
19967;SDS011;10145;49.152;9.282;2022-07-06T13:04:57;15.93;;;3.35;;
19967;SDS011;10145;49.152;9.282;2022-07-06T13:07:29;4.07;;;1.95;;
19967;SDS011;10145;49.152;9.282;2022-07-06T13:10:00;9.10;;;2.38;;
19967;SDS011;10145;49.152;9.282;2022-07-06T13:12:27;8.35;;;2.22;;
19967;SDS011;10145;49.152;9.282;2022-07-06T13:14:53;4.63;;;2.08;;
19967;SDS011;10145;49.152;9.282;2022-07-06T13:17:19;4.65;;;2.00;;
19967;SDS011;10145;49.152;9.282;2022-07-06T13:19:44;8.27;;;2.20;;
19967;SDS011;10145;49.152;9.282;2022-07-06T13:22:10;6.90;;;2.13;;
19967;SDS011;10145;49.152;9.282;2022-07-06T13:24:35;5.57;;;2.10;;
19967;SDS011;10145;49.152;9.282;2022-07-06T13:27:01;4.28;;;2.00;;
19967;SDS011;10145;49.152;9.282;2022-07-06T13:29:28;2.28;;;1.70;;
19967;SDS011;10145;49.152;9.282;2022-07-06T13:31:53;4.60;;;1.77;;
19967;SDS011;10145;49.152;9.282;2022-07-06T13:34:19;3.92;;;1.88;;
19967;SDS011;10145;49.152;9.282;2022-07-06T13:36:45;5.63;;;1.90;;
19967;SDS011;10145;49.152;9.282;2022-07-06T13:39:11;4.03;;;1.58;;
19967;SDS011;10145;49.152;9.282;2022-07-06T13:41:36;5.13;;;1.38;;
19967;SDS011;10145;49.152;9.282;2022-07-06T13:44:02;4.28;;;1.48;;
19967;SDS011;10145;49.152;9.282;2022-07-06T13:46:28;2.75;;;1.52;;
19967;SDS011;10145;49.152;9.282;2022-07-06T13:48:55;4.20;;;1.42;;
19967;SDS011;10145;49.152;9.282;2022-07-06T13:51:22;1.90;;;1.50;;
19967;SDS011;10145;49.152;9.282;2022-07-06T13:53:48;4.95;;;2.10;;
19967;SDS011;10145;49.152;9.282;2022-07-06T13:56:13;5.50;;;1.60;;
19967;SDS011;10145;49.152;9.282;2022-07-06T13:58:39;3.10;;;1.50;;
19967;SDS011;10145;49.152;9.282;2022-07-06T14:01:05;4.43;;;1.52;;
19967;SDS011;10145;49.152;9.282;2022-07-06T14:03:30;5.07;;;1.63;;
19967;SDS011;10145;49.152;9.282;2022-07-06T14:06:00;3.53;;;1.67;;
19967;SDS011;10145;49.152;9.282;2022-07-06T14:08:26;3.80;;;1.40;;
19967;SDS011;10145;49.152;9.282;2022-07-06T14:10:53;4.57;;;1.50;;
19967;SDS011;10145;49.152;9.282;2022-07-06T14:13:20;2.63;;;1.27;;
19967;SDS011;10145;49.152;9.282;2022-07-06T14:15:46;3.72;;;1.63;;
19967;SDS011;10145;49.152;9.282;2022-07-06T14:18:12;4.80;;;1.55;;
19967;SDS011;10145;49.152;9.282;2022-07-06T14:20:38;3.35;;;1.50;;
19967;SDS011;10145;49.152;9.282;2022-07-06T14:23:03;2.97;;;1.27;;
19967;SDS011;10145;49.152;9.282;2022-07-06T14:25:29;3.45;;;1.50;;
19967;SDS011;10145;49.152;9.282;2022-07-06T14:27:55;3.65;;;1.38;;
19967;SDS011;10145;49.152;9.282;2022-07-06T14:30:21;2.97;;;1.40;;
19967;SDS011;10145;49.152;9.282;2022-07-06T14:32:47;2.95;;;1.20;;
19967;SDS011;10145;49.152;9.282;2022-07-06T14:35:12;1.65;;;1.20;;
19967;SDS011;10145;49.152;9.282;2022-07-06T14:37:38;3.35;;;1.40;;
19967;SDS011;10145;49.152;9.282;2022-07-06T14:40:03;3.60;;;1.42;;
19967;SDS011;10145;49.152;9.282;2022-07-06T14:42:29;4.80;;;1.80;;
19967;SDS011;10145;49.152;9.282;2022-07-06T14:44:55;4.43;;;1.40;;
19967;SDS011;10145;49.152;9.282;2022-07-06T14:47:20;2.65;;;1.60;;
19967;SDS011;10145;49.152;9.282;2022-07-06T14:49:46;6.78;;;1.52;;
19967;SDS011;10145;49.152;9.282;2022-07-06T14:52:12;5.00;;;1.40;;
19967;SDS011;10145;49.152;9.282;2022-07-06T14:54:37;3.47;;;1.23;;
19967;SDS011;10145;49.152;9.282;2022-07-06T14:57:03;3.63;;;1.38;;
19967;SDS011;10145;49.152;9.282;2022-07-06T14:59:29;3.25;;;1.30;;
19967;SDS011;10145;49.152;9.282;2022-07-06T15:01:55;2.83;;;1.48;;
19967;SDS011;10145;49.152;9.282;2022-07-06T15:04:21;6.82;;;1.52;;
19967;SDS011;10145;49.152;9.282;2022-07-06T15:06:47;4.53;;;1.48;;
19967;SDS011;10145;49.152;9.282;2022-07-06T15:09:13;3.97;;;1.60;;
19967;SDS011;10145;49.152;9.282;2022-07-06T15:11:39;3.75;;;1.48;;
19967;SDS011;10145;49.152;9.282;2022-07-06T15:14:05;3.28;;;1.40;;
19967;SDS011;10145;49.152;9.282;2022-07-06T15:16:30;3.58;;;1.55;;
19967;SDS011;10145;49.152;9.282;2022-07-06T15:18:56;2.45;;;1.70;;
19967;SDS011;10145;49.152;9.282;2022-07-06T15:21:21;5.47;;;1.95;;
19967;SDS011;10145;49.152;9.282;2022-07-06T15:23:47;3.83;;;1.70;;
19967;SDS011;10145;49.152;9.282;2022-07-06T15:26:12;5.45;;;1.92;;
19967;SDS011;10145;49.152;9.282;2022-07-06T15:28:38;3.75;;;2.10;;
19967;SDS011;10145;49.152;9.282;2022-07-06T15:31:04;7.47;;;1.88;;
19967;SDS011;10145;49.152;9.282;2022-07-06T15:33:29;2.05;;;1.85;;
19967;SDS011;10145;49.152;9.282;2022-07-06T15:35:55;4.43;;;2.10;;
19967;SDS011;10145;49.152;9.282;2022-07-06T15:38:20;5.22;;;2.00;;
19967;SDS011;10145;49.152;9.282;2022-07-06T15:40:46;3.00;;;2.08;;
19967;SDS011;10145;49.152;9.282;2022-07-06T15:43:22;3.65;;;2.20;;
19967;SDS011;10145;49.152;9.282;2022-07-06T15:45:50;4.03;;;2.03;;
19967;SDS011;10145;49.152;9.282;2022-07-06T15:48:20;5.43;;;2.10;;
19967;SDS011;10145;49.152;9.282;2022-07-06T15:50:45;5.75;;;3.45;;
19967;SDS011;10145;49.152;9.282;2022-07-06T15:53:11;2.78;;;1.98;;
19967;SDS011;10145;49.152;9.282;2022-07-06T15:55:37;3.20;;;1.90;;
19967;SDS011;10145;49.152;9.282;2022-07-06T15:58:02;8.20;;;4.35;;
19967;SDS011;10145;49.152;9.282;2022-07-06T16:00:28;3.47;;;2.47;;
19967;SDS011;10145;49.152;9.282;2022-07-06T16:02:54;3.70;;;2.10;;
19967;SDS011;10145;49.152;9.282;2022-07-06T16:05:19;5.57;;;1.90;;
19967;SDS011;10145;49.152;9.282;2022-07-06T16:07:49;2.35;;;2.10;;
19967;SDS011;10145;49.152;9.282;2022-07-06T16:10:15;5.85;;;2.10;;
19967;SDS011;10145;49.152;9.282;2022-07-06T16:12:40;2.00;;;1.77;;
19967;SDS011;10145;49.152;9.282;2022-07-06T16:15:06;4.95;;;2.00;;
19967;SDS011;10145;49.152;9.282;2022-07-06T16:17:33;5.95;;;2.20;;
19967;SDS011;10145;49.152;9.282;2022-07-06T16:19:59;5.22;;;2.20;;
19967;SDS011;10145;49.152;9.282;2022-07-06T16:22:24;2.97;;;2.00;;
19967;SDS011;10145;49.152;9.282;2022-07-06T16:24:50;4.85;;;2.17;;
19967;SDS011;10145;49.152;9.282;2022-07-06T16:27:16;3.88;;;2.28;;
19967;SDS011;10145;49.152;9.282;2022-07-06T16:29:42;4.43;;;2.15;;
19967;SDS011;10145;49.152;9.282;2022-07-06T16:32:08;4.68;;;2.10;;
19967;SDS011;10145;49.152;9.282;2022-07-06T16:34:34;2.78;;;1.90;;
19967;SDS011;10145;49.152;9.282;2022-07-06T16:36:59;4.35;;;2.40;;
19967;SDS011;10145;49.152;9.282;2022-07-06T16:39:25;3.53;;;1.90;;
19967;SDS011;10145;49.152;9.282;2022-07-06T16:41:51;5.47;;;2.38;;
19967;SDS011;10145;49.152;9.282;2022-07-06T16:44:16;2.53;;;2.10;;
19967;SDS011;10145;49.152;9.282;2022-07-06T16:46:42;8.57;;;2.63;;
19967;SDS011;10145;49.152;9.282;2022-07-06T16:49:07;4.95;;;2.20;;
19967;SDS011;10145;49.152;9.282;2022-07-06T16:51:33;4.65;;;2.33;;
19967;SDS011;10145;49.152;9.282;2022-07-06T16:53:59;3.58;;;2.85;;
19967;SDS011;10145;49.152;9.282;2022-07-06T16:56:24;4.03;;;2.08;;
19967;SDS011;10145;49.152;9.282;2022-07-06T16:58:50;10.38;;;5.20;;
19967;SDS011;10145;49.152;9.282;2022-07-06T17:01:15;8.68;;;2.58;;
19967;SDS011;10145;49.152;9.282;2022-07-06T17:03:41;16.88;;;8.70;;
19967;SDS011;10145;49.152;9.282;2022-07-06T17:06:07;5.15;;;3.28;;
19967;SDS011;10145;49.152;9.282;2022-07-06T17:08:32;11.90;;;5.30;;
19967;SDS011;10145;49.152;9.282;2022-07-06T17:10:58;4.32;;;3.00;;
19967;SDS011;10145;49.152;9.282;2022-07-06T17:13:24;3.92;;;2.22;;
19967;SDS011;10145;49.152;9.282;2022-07-06T17:15:49;2.85;;;2.08;;
19967;SDS011;10145;49.152;9.282;2022-07-06T17:18:15;3.50;;;1.73;;
19967;SDS011;10145;49.152;9.282;2022-07-06T17:20:41;4.88;;;2.75;;
19967;SDS011;10145;49.152;9.282;2022-07-06T17:23:06;3.15;;;2.10;;
19967;SDS011;10145;49.152;9.282;2022-07-06T17:25:32;3.47;;;1.85;;
19967;SDS011;10145;49.152;9.282;2022-07-06T17:27:58;3.58;;;1.92;;
19967;SDS011;10145;49.152;9.282;2022-07-06T17:30:25;4.57;;;1.83;;
19967;SDS011;10145;49.152;9.282;2022-07-06T17:32:51;10.43;;;3.53;;
19967;SDS011;10145;49.152;9.282;2022-07-06T17:35:16;6.20;;;2.03;;
19967;SDS011;10145;49.152;9.282;2022-07-06T17:37:42;5.57;;;1.92;;
19967;SDS011;10145;49.152;9.282;2022-07-06T17:40:08;3.25;;;1.60;;
19967;SDS011;10145;49.152;9.282;2022-07-06T17:42:35;4.15;;;2.00;;
19967;SDS011;10145;49.152;9.282;2022-07-06T17:45:01;5.43;;;1.42;;
19967;SDS011;10145;49.152;9.282;2022-07-06T17:47:26;7.35;;;1.85;;
19967;SDS011;10145;49.152;9.282;2022-07-06T17:49:52;3.00;;;1.83;;
19967;SDS011;10145;49.152;9.282;2022-07-06T17:52:17;3.70;;;1.70;;
19967;SDS011;10145;49.152;9.282;2022-07-06T17:54:43;2.28;;;1.60;;
19967;SDS011;10145;49.152;9.282;2022-07-06T17:57:09;4.70;;;1.70;;
19967;SDS011;10145;49.152;9.282;2022-07-06T17:59:36;2.90;;;1.77;;
19967;SDS011;10145;49.152;9.282;2022-07-06T18:02:02;4.47;;;1.80;;
19967;SDS011;10145;49.152;9.282;2022-07-06T18:04:28;4.68;;;1.70;;
19967;SDS011;10145;49.152;9.282;2022-07-06T18:06:53;1.60;;;1.40;;
19967;SDS011;10145;49.152;9.282;2022-07-06T18:09:19;2.65;;;1.33;;
19967;SDS011;10145;49.152;9.282;2022-07-06T18:11:44;3.47;;;1.65;;
19967;SDS011;10145;49.152;9.282;2022-07-06T18:14:10;4.85;;;1.88;;
19967;SDS011;10145;49.152;9.282;2022-07-06T18:16:35;1.92;;;1.70;;
19967;SDS011;10145;49.152;9.282;2022-07-06T18:19:01;6.25;;;1.83;;
19967;SDS011;10145;49.152;9.282;2022-07-06T18:21:26;3.90;;;1.60;;
19967;SDS011;10145;49.152;9.282;2022-07-06T18:23:52;2.90;;;1.60;;
19967;SDS011;10145;49.152;9.282;2022-07-06T18:26:18;2.13;;;1.52;;
19967;SDS011;10145;49.152;9.282;2022-07-06T18:28:43;1.90;;;1.50;;
19967;SDS011;10145;49.152;9.282;2022-07-06T18:31:09;2.30;;;1.50;;
19967;SDS011;10145;49.152;9.282;2022-07-06T18:33:34;2.88;;;1.63;;
19967;SDS011;10145;49.152;9.282;2022-07-06T18:36:00;6.80;;;2.13;;
19967;SDS011;10145;49.152;9.282;2022-07-06T18:38:26;2.65;;;1.40;;
19967;SDS011;10145;49.152;9.282;2022-07-06T18:40:52;2.47;;;1.63;;
19967;SDS011;10145;49.152;9.282;2022-07-06T18:43:17;4.22;;;1.80;;
19967;SDS011;10145;49.152;9.282;2022-07-06T18:45:43;4.63;;;2.10;;
19967;SDS011;10145;49.152;9.282;2022-07-06T18:48:11;2.80;;;2.00;;
19967;SDS011;10145;49.152;9.282;2022-07-06T18:50:38;3.42;;;1.73;;
19967;SDS011;10145;49.152;9.282;2022-07-06T18:53:05;3.28;;;1.52;;
19967;SDS011;10145;49.152;9.282;2022-07-06T18:55:30;7.07;;;2.05;;
19967;SDS011;10145;49.152;9.282;2022-07-06T18:57:56;4.15;;;1.55;;